createdAt,value
2022-09-18T00:02:19.096Z,6.20
2022-09-18T00:04:45.906Z,6.50
2022-09-18T00:07:12.696Z,6.80
2022-09-18T00:10:08.431Z,6.90
2022-09-18T00:12:35.084Z,7.00
2022-09-18T00:15:01.735Z,7.00
2022-09-18T00:17:28.408Z,6.80
2022-09-18T00:19:55.148Z,6.80
2022-09-18T00:22:21.827Z,6.90
2022-09-18T00:24:48.457Z,6.80
2022-09-18T00:27:15.105Z,6.40
2022-09-18T00:29:41.715Z,6.40
2022-09-18T00:32:08.357Z,6.60
2022-09-18T00:34:35.115Z,6.30
2022-09-18T00:37:02.820Z,6.10
2022-09-18T00:39:29.476Z,5.90
2022-09-18T00:41:56.192Z,6.20
2022-09-18T00:44:42.377Z,6.40
2022-09-18T00:47:12.122Z,6.60
2022-09-18T00:49:46.460Z,6.40
2022-09-18T00:52:13.754Z,6.80
2022-09-18T00:54:41.971Z,6.40
2022-09-18T00:57:10.862Z,6.40
2022-09-18T00:59:37.846Z,6.80
2022-09-18T01:02:04.799Z,6.40
2022-09-18T01:04:31.487Z,6.60
2022-09-18T01:07:10.335Z,6.70
2022-09-18T01:09:45.739Z,6.50
2022-09-18T01:12:19.428Z,6.20
2022-09-18T01:14:55.305Z,5.80
2022-09-18T01:17:30.002Z,5.80
2022-09-18T01:20:04.299Z,5.70
2022-09-18T01:23:03.790Z,5.50
2022-09-18T01:25:33.505Z,5.00
2022-09-18T01:28:13.039Z,5.20
2022-09-18T01:30:41.768Z,4.90
2022-09-18T01:33:31.539Z,5.00
2022-09-18T01:36:00.076Z,4.90
2022-09-18T01:38:34.815Z,4.70
2022-09-18T01:41:37.178Z,4.40
2022-09-18T01:44:07.125Z,4.30
2022-09-18T01:46:33.981Z,4.90
2022-09-18T01:49:05.786Z,4.70
2022-09-18T01:52:00.120Z,4.30
2022-09-18T01:54:28.711Z,5.60
2022-09-18T01:56:58.263Z,4.40
2022-09-18T01:59:34.612Z,4.20
2022-09-18T02:02:07.406Z,4.20
2022-09-18T02:04:36.323Z,4.10
2022-09-18T02:07:21.385Z,4.50
2022-09-18T02:09:48.207Z,4.60
2022-09-18T02:12:17.599Z,4.50
2022-09-18T02:14:54.013Z,4.30
2022-09-18T02:17:38.836Z,4.50
2022-09-18T02:20:13.868Z,4.40
2022-09-18T02:22:42.288Z,4.50
2022-09-18T02:25:09.128Z,4.40
2022-09-18T02:27:36.999Z,4.50
2022-09-18T02:30:04.297Z,4.60
2022-09-18T02:32:31.092Z,4.40
2022-09-18T02:34:57.743Z,4.80
2022-09-18T02:37:45.352Z,5.50
2022-09-18T02:40:25.232Z,5.80
2022-09-18T02:43:12.684Z,6.60
2022-09-18T02:45:48.839Z,8.30
2022-09-18T02:48:34.316Z,9.20
2022-09-18T02:51:37.287Z,9.30
2022-09-18T02:54:06.840Z,10.20
2022-09-18T02:56:55.528Z,10.70
2022-09-18T02:59:26.731Z,10.70
2022-09-18T03:01:56.444Z,10.60
2022-09-18T03:04:24.592Z,10.20
2022-09-18T03:06:58.152Z,10.60
2022-09-18T03:09:25.427Z,10.50
2022-09-18T03:11:53.984Z,10.50
2022-09-18T03:14:21.038Z,10.10
2022-09-18T03:16:47.696Z,10.30
2022-09-18T03:19:14.841Z,9.80
2022-09-18T03:21:42.752Z,9.60
2022-09-18T03:24:11.130Z,8.40
2022-09-18T03:26:40.975Z,8.60
2022-09-18T03:29:09.102Z,8.20
2022-09-18T03:31:37.610Z,7.90
2022-09-18T03:34:05.862Z,7.80
2022-09-18T03:36:32.556Z,7.70
2022-09-18T03:38:59.823Z,7.60
2022-09-18T03:41:26.686Z,7.80
2022-09-18T03:43:55.789Z,7.70
2022-09-18T03:46:24.083Z,7.20
2022-09-18T03:48:54.143Z,7.10
2022-09-18T03:51:21.896Z,7.60
2022-09-18T03:53:48.927Z,7.30
2022-09-18T03:56:37.136Z,8.00
2022-09-18T03:59:14.104Z,7.50
2022-09-18T04:01:57.668Z,7.60
2022-09-18T04:04:27.509Z,7.80
2022-09-18T04:07:12.920Z,7.70
2022-09-18T04:09:42.145Z,7.10
2022-09-18T04:12:08.999Z,7.20
2022-09-18T04:14:35.760Z,7.70
2022-09-18T04:17:02.538Z,7.30
2022-09-18T04:19:29.884Z,6.70
2022-09-18T04:21:57.285Z,7.40
2022-09-18T04:24:24.043Z,7.10
2022-09-18T04:26:50.722Z,7.70
2022-09-18T04:29:19.433Z,6.70
2022-09-18T04:31:46.217Z,6.90
2022-09-18T04:34:14.986Z,6.60
2022-09-18T04:36:42.073Z,6.70
2022-09-18T04:39:09.272Z,6.10
2022-09-18T04:41:36.056Z,6.00
2022-09-18T04:44:03.843Z,6.10
2022-09-18T04:46:30.722Z,5.70
2022-09-18T04:48:57.388Z,5.10
2022-09-18T04:51:25.700Z,5.00
2022-09-18T04:53:52.381Z,4.80
2022-09-18T04:56:19.140Z,4.90
2022-09-18T04:58:48.538Z,4.70
2022-09-18T05:01:15.273Z,4.70
2022-09-18T05:03:42.091Z,3.70
2022-09-18T05:06:12.518Z,3.30
2022-09-18T05:08:39.599Z,3.10
2022-09-18T05:11:06.643Z,2.70
2022-09-18T05:13:35.212Z,2.50
2022-09-18T05:16:07.781Z,2.30
2022-09-18T05:18:34.851Z,2.40
2022-09-18T05:21:03.269Z,2.40
2022-09-18T05:23:30.888Z,2.50
2022-09-18T05:25:57.544Z,2.40
2022-09-18T05:28:24.657Z,2.10
2022-09-18T05:30:52.115Z,2.20
2022-09-18T05:33:19.904Z,2.40
2022-09-18T05:35:47.343Z,2.20
2022-09-18T05:38:14.256Z,2.30
2022-09-18T05:40:43.488Z,2.10
2022-09-18T05:43:10.224Z,2.40
2022-09-18T05:45:38.067Z,2.50
2022-09-18T05:48:13.648Z,2.40
2022-09-18T05:50:40.384Z,2.70
2022-09-18T05:53:11.716Z,2.40
2022-09-18T05:55:54.995Z,2.70
2022-09-18T05:58:21.865Z,2.80
2022-09-18T06:00:52.454Z,2.90
2022-09-18T06:03:21.335Z,2.70
2022-09-18T06:05:52.008Z,2.90
2022-09-18T06:08:19.576Z,3.00
2022-09-18T06:10:46.265Z,3.40
2022-09-18T06:13:15.720Z,3.50
2022-09-18T06:15:48.772Z,3.40
2022-09-18T06:18:16.844Z,3.40
2022-09-18T06:20:44.338Z,3.80
2022-09-18T06:23:12.363Z,3.30
2022-09-18T06:26:17.712Z,3.30
2022-09-18T06:28:46.666Z,3.40
2022-09-18T06:31:13.614Z,3.60
2022-09-18T06:33:52.534Z,3.70
2022-09-18T06:36:19.354Z,3.30
2022-09-18T06:39:15.532Z,3.80
2022-09-18T06:41:43.072Z,3.80
2022-09-18T06:44:18.540Z,3.90
2022-09-18T06:47:01.055Z,4.40
2022-09-18T06:49:34.035Z,3.90
2022-09-18T06:52:00.830Z,3.90
2022-09-18T06:54:27.499Z,4.40
2022-09-18T06:56:54.892Z,4.00
2022-09-18T06:59:22.872Z,4.50
2022-09-18T07:01:50.705Z,4.20
2022-09-18T07:04:38.888Z,3.90
2022-09-18T07:07:09.575Z,4.40
2022-09-18T07:09:36.397Z,4.20
2022-09-18T07:12:09.688Z,3.80
2022-09-18T07:14:46.434Z,4.10
2022-09-18T07:17:17.833Z,4.40
2022-09-18T07:19:45.477Z,4.20
2022-09-18T07:22:12.588Z,4.00
2022-09-18T07:24:43.432Z,4.30
2022-09-18T07:27:10.127Z,4.10
2022-09-18T07:29:49.427Z,4.00
2022-09-18T07:32:20.532Z,3.80
2022-09-18T07:34:48.437Z,4.00
2022-09-18T07:37:19.877Z,3.80
2022-09-18T07:39:52.613Z,4.00
2022-09-18T07:42:42.390Z,3.70
2022-09-18T07:48:06.944Z,4.10
2022-09-18T07:50:37.970Z,3.90
2022-09-18T07:53:05.518Z,3.90
2022-09-18T07:55:35.780Z,3.90
2022-09-18T07:58:04.663Z,3.90
2022-09-18T08:01:00.264Z,3.80
2022-09-18T08:03:27.302Z,3.90
2022-09-18T08:06:13.947Z,3.90
2022-09-18T08:09:02.765Z,3.70
2022-09-18T08:11:52.840Z,4.00
2022-09-18T08:14:29.093Z,5.60
2022-09-18T08:17:16.288Z,4.90
2022-09-18T08:20:12.911Z,7.50
2022-09-18T08:22:50.884Z,4.50
2022-09-18T08:25:18.660Z,3.90
2022-09-18T08:27:48.030Z,3.60
2022-09-18T08:30:18.846Z,3.80
2022-09-18T08:32:48.200Z,3.90
2022-09-18T08:35:15.486Z,3.60
2022-09-18T08:37:49.213Z,3.80
2022-09-18T08:40:53.931Z,3.60
2022-09-18T08:44:06.841Z,3.40
2022-09-18T08:46:42.616Z,3.50
2022-09-18T08:49:33.152Z,3.70
2022-09-18T08:52:15.907Z,3.10
2022-09-18T08:54:46.281Z,3.20
2022-09-18T08:57:35.005Z,3.00
2022-09-18T09:00:19.629Z,3.40
2022-09-18T09:02:53.917Z,3.10
2022-09-18T09:05:22.154Z,3.50
2022-09-18T09:08:17.631Z,3.50
2022-09-18T09:11:04.583Z,3.30
2022-09-18T09:13:34.453Z,3.40
2022-09-18T09:16:08.944Z,3.20
2022-09-18T09:18:43.976Z,3.90
2022-09-18T09:21:46.324Z,4.20
2022-09-18T09:24:28.468Z,4.30
2022-09-18T09:27:25.238Z,4.60
2022-09-18T09:30:23.846Z,4.40
2022-09-18T09:33:24.779Z,4.50
2022-09-18T09:36:17.389Z,4.50
2022-09-18T09:39:08.114Z,5.00
2022-09-18T09:41:39.110Z,4.80
2022-09-18T09:44:14.857Z,5.00
2022-09-18T09:47:15.794Z,4.60
2022-09-18T09:49:42.745Z,4.80
2022-09-18T09:52:15.765Z,4.80
2022-09-18T09:54:42.984Z,5.10
2022-09-18T09:57:22.048Z,4.60
2022-09-18T10:00:24.878Z,5.20
2022-09-18T10:03:17.756Z,5.10
2022-09-18T10:06:22.677Z,5.50
2022-09-18T10:09:23.659Z,5.10
2022-09-18T10:12:15.315Z,5.20
2022-09-18T10:14:46.304Z,4.90
2022-09-18T10:17:13.039Z,4.90
2022-09-18T10:19:41.061Z,4.60
2022-09-18T10:22:09.931Z,5.20
2022-09-18T10:24:47.151Z,5.10
2022-09-18T10:27:14.598Z,5.30
2022-09-18T10:29:42.167Z,4.90
2022-09-18T10:32:13.939Z,5.10
2022-09-18T10:34:49.598Z,5.70
2022-09-18T10:37:37.833Z,5.60
2022-09-18T10:40:39.787Z,5.60
2022-09-18T10:43:07.693Z,5.70
2022-09-18T10:45:40.240Z,6.20
2022-09-18T10:48:23.355Z,6.00
2022-09-18T10:50:57.464Z,6.60
2022-09-18T10:53:34.950Z,6.30
2022-09-18T10:56:24.205Z,6.50
2022-09-18T10:58:52.956Z,6.50
2022-09-18T11:01:19.809Z,6.90
2022-09-18T11:04:04.043Z,7.20
2022-09-18T11:06:35.317Z,7.30
2022-09-18T11:09:10.642Z,7.80
2022-09-18T11:11:43.834Z,8.70
2022-09-18T11:14:23.245Z,9.20
2022-09-18T11:16:57.385Z,9.50
2022-09-18T11:19:24.432Z,8.40
2022-09-18T11:21:55.058Z,8.60
2022-09-18T11:24:23.018Z,8.10
2022-09-18T11:26:51.904Z,8.10
2022-09-18T11:29:30.724Z,7.10
2022-09-18T11:32:20.204Z,7.20
2022-09-18T11:34:58.359Z,6.50
2022-09-18T11:37:34.729Z,7.40
2022-09-18T11:40:07.534Z,7.30
2022-09-18T11:42:43.478Z,8.20
2022-09-18T11:45:44.539Z,8.50
2022-09-18T11:48:29.045Z,9.30
2022-09-18T11:50:58.127Z,7.80
2022-09-18T11:54:04.462Z,6.70
2022-09-18T11:56:47.239Z,6.30
2022-09-18T11:59:31.926Z,5.90
2022-09-18T12:02:01.440Z,6.80
2022-09-18T12:04:40.608Z,6.10
2022-09-18T12:10:06.835Z,6.60
2022-09-18T12:12:44.898Z,6.00
2022-09-18T12:15:22.297Z,6.00
2022-09-18T12:17:52.757Z,5.70
2022-09-18T12:20:44.358Z,6.10
2022-09-18T12:23:14.608Z,5.00
2022-09-18T12:26:06.714Z,5.20
2022-09-18T12:28:52.485Z,5.40
2022-09-18T12:31:28.974Z,4.80
2022-09-18T12:34:18.465Z,5.20
2022-09-18T12:36:51.950Z,4.60
2022-09-18T12:42:04.462Z,4.60
2022-09-18T12:44:40.360Z,4.10
2022-09-18T12:47:40.248Z,4.00
2022-09-18T12:50:22.661Z,4.70
2022-09-18T12:53:10.214Z,4.30
2022-09-18T12:55:46.076Z,4.40
2022-09-18T12:58:18.368Z,4.50
2022-09-18T13:00:46.770Z,4.60
2022-09-18T13:03:18.258Z,4.30
2022-09-18T13:05:51.877Z,4.40
2022-09-18T13:08:32.850Z,4.60
2022-09-18T13:11:01.272Z,4.80
2022-09-18T13:13:47.437Z,4.40
2022-09-18T13:16:34.583Z,5.80
2022-09-18T13:19:12.286Z,5.30
2022-09-18T13:21:44.590Z,3.10
2022-09-18T13:24:13.821Z,2.00
2022-09-18T13:26:40.527Z,1.50
2022-09-18T13:29:44.831Z,1.10
2022-09-18T13:32:12.010Z,0.90
2022-09-18T13:34:39.269Z,0.80
2022-09-18T13:37:06.599Z,0.80
2022-09-18T13:39:50.589Z,0.70
2022-09-18T13:42:34.188Z,0.70
2022-09-18T13:45:23.505Z,0.60
2022-09-18T13:48:01.201Z,0.70
2022-09-18T13:50:28.434Z,0.80
2022-09-18T13:52:56.064Z,0.70
2022-09-18T13:55:27.202Z,0.70
2022-09-18T13:58:31.045Z,0.70
2022-09-18T14:01:01.982Z,0.70
2022-09-18T14:03:28.652Z,0.70
2022-09-18T14:05:55.317Z,0.60
2022-09-18T14:08:22.482Z,0.70
2022-09-18T14:11:05.372Z,0.70
2022-09-18T14:14:02.399Z,0.80
2022-09-18T14:16:38.834Z,0.80
2022-09-18T14:19:36.299Z,0.80
2022-09-18T14:22:03.076Z,0.70
2022-09-18T14:24:55.150Z,0.70
2022-09-18T14:27:37.855Z,0.70
2022-09-18T14:30:25.081Z,0.90
2022-09-18T14:33:05.611Z,0.80
2022-09-18T14:35:35.888Z,0.80
2022-09-18T14:38:02.578Z,0.80
2022-09-18T14:40:29.835Z,0.80
2022-09-18T14:42:56.644Z,0.80
2022-09-18T14:45:28.586Z,0.80
2022-09-18T14:47:55.474Z,0.70
2022-09-18T14:50:33.881Z,0.80
2022-09-18T14:53:02.647Z,0.80
2022-09-18T14:55:35.631Z,0.80
2022-09-18T14:58:07.667Z,1.00
2022-09-18T15:00:36.205Z,1.00
2022-09-18T15:03:09.215Z,1.00
2022-09-18T15:05:35.915Z,0.80
2022-09-18T15:08:26.708Z,0.80
2022-09-18T15:10:53.953Z,1.40
2022-09-18T15:13:23.519Z,0.90
2022-09-18T15:16:04.421Z,1.50
2022-09-18T15:18:39.049Z,1.00
2022-09-18T15:21:05.827Z,0.80
2022-09-18T15:23:34.692Z,0.90
2022-09-18T15:26:06.169Z,1.00
2022-09-18T15:28:34.507Z,0.80
2022-09-18T15:31:03.716Z,0.80
2022-09-18T15:33:31.432Z,1.00
2022-09-18T15:35:58.407Z,1.20
2022-09-18T15:38:26.850Z,1.00
2022-09-18T15:40:53.729Z,1.10
2022-09-18T15:43:29.687Z,0.80
2022-09-18T15:46:23.552Z,1.20
2022-09-18T15:51:29.331Z,1.10
2022-09-18T15:54:12.669Z,1.00
2022-09-18T15:56:47.966Z,0.90
2022-09-18T15:59:39.399Z,0.70
2022-09-18T16:02:21.378Z,0.70
2022-09-18T16:04:52.743Z,2.40
2022-09-18T16:07:24.669Z,1.40
2022-09-18T16:09:51.926Z,2.00
2022-09-18T16:12:30.986Z,1.40
2022-09-18T16:15:23.216Z,1.80
2022-09-18T16:18:16.888Z,0.90
2022-09-18T16:20:47.771Z,1.20
2022-09-18T16:23:15.763Z,1.10
2022-09-18T16:25:43.705Z,0.80
2022-09-18T16:28:21.745Z,1.40
2022-09-18T16:30:48.640Z,1.50
2022-09-18T16:33:27.207Z,1.80
2022-09-18T16:36:15.163Z,1.20
2022-09-18T16:38:41.832Z,1.40
2022-09-18T16:41:09.257Z,1.00
2022-09-18T16:43:36.689Z,0.70
2022-09-18T16:46:03.369Z,1.00
2022-09-18T16:48:30.152Z,0.80
2022-09-18T16:50:56.760Z,0.80
2022-09-18T16:53:23.504Z,0.80
2022-09-18T16:55:52.080Z,0.70
2022-09-18T16:58:19.105Z,0.80
2022-09-18T17:00:45.981Z,0.80
2022-09-18T17:03:12.698Z,1.00
2022-09-18T17:05:39.407Z,0.70
2022-09-18T17:08:06.376Z,0.70
2022-09-18T17:10:33.464Z,0.70
2022-09-18T17:13:00.155Z,0.50
2022-09-18T17:15:27.140Z,0.60
2022-09-18T17:17:54.412Z,0.80
2022-09-18T17:20:21.327Z,0.50
2022-09-18T17:22:48.506Z,0.50
2022-09-18T17:25:15.452Z,0.50
2022-09-18T17:27:43.838Z,0.50
2022-09-18T17:30:11.676Z,0.40
2022-09-18T17:32:38.507Z,0.80
2022-09-18T17:35:05.638Z,0.50
2022-09-18T17:37:32.392Z,0.60
2022-09-18T17:40:00.200Z,0.60
2022-09-18T17:42:27.100Z,0.70
2022-09-18T17:44:53.822Z,0.70
2022-09-18T17:47:20.504Z,0.60
2022-09-18T17:49:47.254Z,0.70
2022-09-18T17:52:13.977Z,0.70
2022-09-18T17:54:41.043Z,0.70
2022-09-18T17:57:11.616Z,0.70
2022-09-18T17:59:42.896Z,0.70
2022-09-18T18:02:10.781Z,0.80
2022-09-18T18:04:37.608Z,0.80
2022-09-18T18:07:04.799Z,0.70
2022-09-18T18:09:31.544Z,0.60
2022-09-18T18:11:58.227Z,0.60
2022-09-18T18:14:25.215Z,0.60
2022-09-18T18:16:52.703Z,0.60
2022-09-18T18:19:19.525Z,0.60
2022-09-18T18:21:46.171Z,0.60
2022-09-18T18:24:16.347Z,0.50
2022-09-18T18:26:43.336Z,0.60
2022-09-18T18:29:11.803Z,0.60
2022-09-18T18:31:40.551Z,0.60
2022-09-18T18:34:10.864Z,0.60
2022-09-18T18:36:38.835Z,0.60
2022-09-18T18:39:09.772Z,0.50
2022-09-18T18:41:36.907Z,0.60
2022-09-18T18:44:05.735Z,0.70
2022-09-18T18:46:36.025Z,0.60
2022-09-18T18:49:09.301Z,0.60
2022-09-18T18:51:46.081Z,0.60
2022-09-18T18:54:14.533Z,0.60
2022-09-18T18:56:41.460Z,0.60
2022-09-18T18:59:11.093Z,0.50
2022-09-18T19:01:38.052Z,0.70
2022-09-18T19:04:06.780Z,0.80
2022-09-18T19:06:36.285Z,0.60
2022-09-18T19:09:09.744Z,0.70
2022-09-18T19:11:45.288Z,0.70
2022-09-18T19:14:27.552Z,0.80
2022-09-18T19:16:54.412Z,0.70
2022-09-18T19:19:23.440Z,0.80
2022-09-18T19:21:50.140Z,0.80
2022-09-18T19:24:18.640Z,0.90
2022-09-18T19:26:45.738Z,0.80
2022-09-18T19:29:14.957Z,0.80
2022-09-18T19:31:42.851Z,0.70
2022-09-18T19:34:11.894Z,0.80
2022-09-18T19:36:38.530Z,0.70
2022-09-18T19:39:06.197Z,0.70
2022-09-18T19:41:41.221Z,0.70
2022-09-18T19:44:12.786Z,0.80
2022-09-18T19:46:39.461Z,0.70
2022-09-18T19:49:06.159Z,0.80
2022-09-18T19:51:34.111Z,0.80
2022-09-18T19:54:01.035Z,0.70
2022-09-18T19:56:42.500Z,0.70
2022-09-18T19:59:10.504Z,0.80
2022-09-18T20:01:37.236Z,0.70
2022-09-18T20:06:13.766Z,0.70
2022-09-18T20:08:40.501Z,0.70
2022-09-18T20:11:07.264Z,0.70
2022-09-18T20:13:34.071Z,0.70
2022-09-18T20:16:21.564Z,0.60
2022-09-18T20:18:48.850Z,0.70
2022-09-18T20:21:17.503Z,0.80
2022-09-18T20:23:44.172Z,0.90
2022-09-18T20:26:13.113Z,0.70
2022-09-18T20:28:39.856Z,0.70
2022-09-18T20:31:07.942Z,0.80
2022-09-18T20:33:34.912Z,0.80
2022-09-18T20:36:02.055Z,0.80
2022-09-18T20:38:32.397Z,0.70
2022-09-18T20:41:11.066Z,0.80
2022-09-18T20:43:39.737Z,0.70
2022-09-18T20:46:07.766Z,0.80
2022-09-18T20:48:35.432Z,0.70
2022-09-18T20:51:09.210Z,0.70
2022-09-18T20:56:06.159Z,1.00
2022-09-18T20:58:34.027Z,0.70
2022-09-18T21:01:11.897Z,0.70
2022-09-18T21:03:39.773Z,0.70
2022-09-18T21:06:22.320Z,0.80
2022-09-18T21:08:50.829Z,0.80
2022-09-18T21:11:23.300Z,0.70
2022-09-18T21:13:58.019Z,0.70
2022-09-18T21:16:26.168Z,0.70
2022-09-18T21:18:53.912Z,0.70
2022-09-18T21:21:20.544Z,0.70
2022-09-18T21:23:53.302Z,0.80
2022-09-18T21:26:20.979Z,0.70
2022-09-18T21:28:55.816Z,0.70
2022-09-18T21:31:22.769Z,0.60
2022-09-18T21:33:52.999Z,0.70
2022-09-18T21:36:23.539Z,0.60
2022-09-18T21:38:51.552Z,0.60
2022-09-18T21:41:18.907Z,0.70
2022-09-18T21:43:51.001Z,0.70
2022-09-18T21:46:20.293Z,0.70
2022-09-18T21:48:48.372Z,0.70
2022-09-18T21:51:16.321Z,0.70
2022-09-18T21:53:43.491Z,0.80
2022-09-18T21:56:12.330Z,0.70
2022-09-18T21:58:40.740Z,0.90
2022-09-18T22:01:26.959Z,0.90
2022-09-18T22:03:56.046Z,1.00
2022-09-18T22:06:24.307Z,0.90
2022-09-18T22:09:32.180Z,0.90
2022-09-18T22:11:59.977Z,1.00
2022-09-18T22:14:32.269Z,0.90
2022-09-18T22:17:00.232Z,0.90
2022-09-18T22:19:26.996Z,1.10
2022-09-18T22:21:53.692Z,1.00
2022-09-18T22:24:22.219Z,1.00
2022-09-18T22:26:49.736Z,1.00
2022-09-18T22:29:19.890Z,1.00
2022-09-18T22:31:46.780Z,0.90
2022-09-18T22:34:14.876Z,0.90
2022-09-18T22:37:17.442Z,1.00
2022-09-18T22:39:49.674Z,1.00
2022-09-18T22:42:16.635Z,0.90
2022-09-18T22:44:43.636Z,1.00
2022-09-18T22:47:10.871Z,1.00
2022-09-18T22:49:38.305Z,1.00
2022-09-18T22:52:05.045Z,1.00
2022-09-18T22:54:31.716Z,1.10
2022-09-18T22:56:58.369Z,1.30
2022-09-18T22:59:25.863Z,1.00
2022-09-18T23:01:53.986Z,0.90
2022-09-18T23:04:23.545Z,0.90
2022-09-18T23:06:50.562Z,0.90
2022-09-18T23:09:17.776Z,0.90
2022-09-18T23:11:45.391Z,0.90
2022-09-18T23:14:13.473Z,1.00
2022-09-18T23:16:40.156Z,0.90
2022-09-18T23:19:11.175Z,1.00
2022-09-18T23:21:38.179Z,0.80
2022-09-18T23:24:08.861Z,0.80
2022-09-18T23:26:40.362Z,1.00
2022-09-18T23:29:08.850Z,0.90
2022-09-18T23:31:37.498Z,0.80
2022-09-18T23:34:06.211Z,0.80
2022-09-18T23:36:36.115Z,0.70
2022-09-18T23:39:23.919Z,0.60
2022-09-18T23:41:50.856Z,0.60
2022-09-18T23:44:19.339Z,0.60
2022-09-18T23:46:46.173Z,0.60
2022-09-18T23:49:13.439Z,0.50
2022-09-18T23:51:46.282Z,0.60
2022-09-18T23:54:18.235Z,0.40
2022-09-18T23:56:45.189Z,0.60
2022-09-18T23:59:12.263Z,0.50
